Time;durP1;ratioP1;P1;durP2;ratioP2;P2;SDS_P1;SDS_P2;PMS_P1;PMS_P2;Temp;Humidity;BMP_temperature;BMP_pressure;BME280_temperature;BME280_humidity;BME280_pressure;Samples;Min_cycle;Max_cycle;Signal;HPM_P1;HPM_P2
2021/12/22 00:00:57;;;;;;;214.60;79.00;;;;;;;-4.37;79.52;99562.60;105544;1320;22599;-76
2021/12/22 00:03:25;;;;;;;202.10;79.10;;;;;;;-4.37;79.50;99563.63;105492;1316;23377;-76
2021/12/22 00:05:52;;;;;;;187.50;72.80;;;;;;;-4.36;79.47;99563.64;105506;1320;22640;-76
2021/12/22 00:08:20;;;;;;;169.60;67.00;;;;;;;-4.35;79.41;99565.16;105486;1320;22585;-76
2021/12/22 00:10:47;;;;;;;200.00;72.10;;;;;;;-4.35;79.11;99569.27;105482;1319;22587;-76
2021/12/22 00:13:15;;;;;;;176.10;67.90;;;;;;;-4.32;78.97;99572.52;105542;1320;22576;-76
2021/12/22 00:15:42;;;;;;;152.70;60.90;;;;;;;-4.29;79.06;99576.28;105521;1320;24231;-76
2021/12/22 00:18:09;;;;;;;163.80;65.30;;;;;;;-4.25;79.33;99579.05;105471;1320;22583;-76
2021/12/22 00:20:36;;;;;;;186.40;72.10;;;;;;;-4.27;79.60;99573.23;105531;1320;22666;-76
2021/12/22 00:23:03;;;;;;;209.40;77.60;;;;;;;-4.31;79.83;99574.07;105450;1320;22595;-77
2021/12/22 00:25:30;;;;;;;189.80;73.90;;;;;;;-4.33;79.93;99572.17;105504;1320;25338;-76
2021/12/22 00:27:58;;;;;;;170.80;67.60;;;;;;;-4.32;79.85;99573.72;105518;1319;22723;-76
2021/12/22 00:30:26;;;;;;;172.40;68.70;;;;;;;-4.34;79.44;99576.24;105533;1320;25399;-76
2021/12/22 00:32:56;;;;;;;167.40;66.20;;;;;;;-4.35;79.22;99580.65;105540;1320;25404;-76
2021/12/22 00:35:27;;;;;;;199.80;83.50;;;;;;;-4.33;79.44;99587.98;105413;1320;22807;-76
2021/12/22 00:37:54;;;;;;;215.80;78.60;;;;;;;-4.38;79.79;99582.49;105521;1320;22582;-76
2021/12/22 00:40:21;;;;;;;181.50;70.80;;;;;;;-4.43;79.79;99581.44;105528;1320;22591;-77
2021/12/22 00:42:48;;;;;;;214.50;88.30;;;;;;;-4.47;79.92;99581.55;105533;1319;22641;-76
2021/12/22 00:45:17;;;;;;;219.80;87.80;;;;;;;-4.55;79.89;99584.36;105536;1320;22642;-77
2021/12/22 00:47:44;;;;;;;214.20;85.40;;;;;;;-4.60;79.57;99587.38;105547;1320;22580;-76
2021/12/22 00:50:11;;;;;;;215.90;83.40;;;;;;;-4.65;79.39;99593.10;105526;1320;22727;-77
2021/12/22 00:52:38;;;;;;;204.90;81.20;;;;;;;-4.69;79.15;99596.80;105525;1320;23583;-77
2021/12/22 00:55:06;;;;;;;206.60;78.90;;;;;;;-4.66;79.22;99602.61;105540;1320;25246;-78
2021/12/22 00:57:34;;;;;;;185.00;68.30;;;;;;;-4.59;79.45;99600.82;105500;1319;22581;-77
2021/12/22 01:00:02;;;;;;;185.00;63.30;;;;;;;-4.53;79.76;99599.00;105515;1320;22726;-76
2021/12/22 01:02:29;;;;;;;202.90;74.70;;;;;;;-4.49;80.14;99601.44;105564;1319;22745;-78
2021/12/22 01:04:56;;;;;;;184.20;71.40;;;;;;;-4.46;80.09;99605.20;105529;1320;25428;-80
2021/12/22 01:07:23;;;;;;;161.00;65.80;;;;;;;-4.43;80.20;99605.91;105514;1319;22586;-76
2021/12/22 01:09:50;;;;;;;162.90;66.90;;;;;;;-4.41;80.23;99601.19;105489;1319;23085;-77
2021/12/22 01:12:17;;;;;;;184.80;68.60;;;;;;;-4.37;79.87;99599.67;105654;1320;24285;-79
2021/12/22 01:14:44;;;;;;;211.50;79.30;;;;;;;-4.33;79.56;99599.73;105759;1320;22568;-82
2021/12/22 01:17:14;;;;;;;186.20;76.70;;;;;;;-4.27;79.85;99598.77;105803;1320;25419;-78
2021/12/22 01:22:26;;;;;;;135.80;52.90;;;;;;;-4.18;80.34;99601.72;105802;1319;25537;-81
2021/12/22 01:25:01;;;;;;;142.00;56.60;;;;;;;-4.18;80.39;99603.77;105798;1319;22576;-81
2021/12/22 01:27:36;;;;;;;159.50;58.80;;;;;;;-4.16;80.58;99604.65;105808;1320;22571;-77
2021/12/22 01:30:07;;;;;;;156.30;57.90;;;;;;;-4.14;80.29;99604.84;105820;1319;24441;-82
2021/12/22 01:32:35;;;;;;;142.60;55.90;;;;;;;-4.13;80.07;99602.64;105780;1319;22599;-78
2021/12/22 01:35:05;;;;;;;141.90;56.30;;;;;;;-4.11;80.12;99608.77;105516;1320;22648;-78
2021/12/22 01:37:32;;;;;;;154.80;62.00;;;;;;;-4.03;80.00;99607.83;105349;1320;24349;-81
2021/12/22 01:40:01;;;;;;;143.90;62.00;;;;;;;-3.97;80.23;99608.23;105522;1320;22590;-80
2021/12/22 01:42:28;;;;;;;148.70;54.70;;;;;;;-3.92;80.53;99606.03;105512;1319;25614;-78
2021/12/22 01:50:28;;;;;;;149.30;60.80;;;;;;;-3.86;80.74;99604.23;105517;1319;22601;-82
2021/12/22 01:52:55;;;;;;;157.80;60.20;;;;;;;-3.85;80.59;99604.58;105555;1319;22703;-81
2021/12/22 01:55:32;;;;;;;160.50;64.70;;;;;;;-3.84;80.45;99598.95;105517;1319;22707;-80
2021/12/22 01:58:01;;;;;;;141.90;58.90;;;;;;;-3.78;80.46;99600.89;105499;1319;22578;-80
2021/12/22 02:00:29;;;;;;;129.00;52.80;;;;;;;-3.74;80.67;99597.50;105458;1319;22578;-78
2021/12/22 02:02:57;;;;;;;107.50;43.20;;;;;;;-3.71;80.97;99598.38;105551;1319;22700;-78
2021/12/22 02:05:24;;;;;;;116.90;45.00;;;;;;;-3.71;81.26;99598.38;105492;1319;22635;-79
2021/12/22 02:07:56;;;;;;;101.60;41.70;;;;;;;-3.71;81.24;99596.85;105500;1319;22628;-76
2021/12/22 02:10:35;;;;;;;109.70;41.40;;;;;;;-3.70;80.88;99597.37;105487;1319;23908;-75
2021/12/22 02:13:04;;;;;;;97.10;40.00;;;;;;;-3.71;80.74;99594.80;105473;1319;22588;-76
2021/12/22 02:15:34;;;;;;;116.70;46.20;;;;;;;-3.71;80.79;99598.73;105554;1317;25498;-75
2021/12/22 02:18:04;;;;;;;105.60;45.30;;;;;;;-3.65;80.63;99598.77;105486;1320;22732;-76
2021/12/22 02:20:31;;;;;;;99.50;44.90;;;;;;;-3.60;80.92;99604.25;105472;1319;22645;-75
2021/12/22 02:22:59;;;;;;;89.50;37.60;;;;;;;-3.57;81.35;99602.72;105465;1319;22614;-76
2021/12/22 02:25:34;;;;;;;96.50;41.80;;;;;;;-3.57;81.32;99603.06;105498;1319;22576;-75
2021/12/22 02:28:05;;;;;;;95.10;40.70;;;;;;;-3.58;81.31;99599.99;105501;1320;22592;-76
2021/12/22 02:30:33;;;;;;;86.60;38.60;;;;;;;-3.59;81.14;99601.20;105498;1320;22622;-76
2021/12/22 02:35:40;;;;;;;84.30;38.70;;;;;;;-3.57;80.82;99603.58;105465;1319;22580;-76
2021/12/22 02:38:14;;;;;;;87.40;38.10;;;;;;;-3.52;80.67;99603.11;105455;1320;22614;-75
2021/12/22 02:40:47;;;;;;;79.30;37.20;;;;;;;-3.48;81.10;99608.40;105455;1320;23945;-75
2021/12/22 02:43:20;;;;;;;76.50;30.60;;;;;;;-3.45;81.23;99608.77;105510;1320;23153;-75
2021/12/22 02:45:49;;;;;;;63.40;30.80;;;;;;;-3.44;81.61;99610.83;105462;1320;22763;-75
2021/12/22 02:48:16;;;;;;;73.40;32.50;;;;;;;-3.44;81.34;99609.30;105513;1317;22709;-76
2021/12/22 02:50:44;;;;;;;68.40;30.30;;;;;;;-3.43;81.30;99603.52;105495;1316;22602;-76
2021/12/22 02:53:15;;;;;;;65.00;30.40;;;;;;;-3.44;80.99;99607.94;105512;1319;22700;-76
2021/12/22 03:06:33;;;;;;;58.70;27.30;;;;;;;-3.28;81.64;99609.21;105535;1320;26007;-79
2021/12/22 03:09:13;;;;;;;60.00;26.30;;;;;;;-3.26;81.35;99607.19;105531;1320;22589;-80
2021/12/22 03:11:40;;;;;;;59.10;25.20;;;;;;;-3.25;81.31;99610.27;105549;1319;22723;-76
2021/12/22 03:14:07;;;;;;;60.40;24.30;;;;;;;-3.23;81.03;99610.62;105567;1319;22585;-80
2021/12/22 03:16:34;;;;;;;56.80;25.30;;;;;;;-3.24;81.09;99610.61;105540;1320;22650;-77
2021/12/22 03:19:03;;;;;;;48.80;25.00;;;;;;;-3.19;80.96;99612.16;105565;1319;24257;-79
2021/12/22 03:21:30;;;;;;;50.70;24.40;;;;;;;-3.13;81.25;99607.44;105523;1319;22656;-80
2021/12/22 03:23:57;;;;;;;47.10;22.30;;;;;;;-3.09;81.24;99607.44;105554;1319;22605;-77
2021/12/22 03:26:25;;;;;;;52.20;22.80;;;;;;;-3.07;81.44;99606.61;105569;1319;22581;-78
2021/12/22 03:28:52;;;;;;;47.30;21.90;;;;;;;-3.06;81.46;99606.63;105548;1319;23099;-81
2021/12/22 03:31:19;;;;;;;45.90;21.80;;;;;;;-3.04;81.22;99606.27;105553;1320;22555;-80
2021/12/22 03:33:47;;;;;;;53.00;22.50;;;;;;;-3.04;81.32;99606.78;105527;1320;22585;-78
2021/12/22 03:36:14;;;;;;;50.80;24.10;;;;;;;-3.03;80.92;99612.41;105548;1319;23112;-80
2021/12/22 03:38:42;;;;;;;51.30;24.00;;;;;;;-2.98;80.83;99605.80;105539;1318;22648;-80
2021/12/22 03:41:09;;;;;;;46.40;23.50;;;;;;;-2.94;81.21;99610.92;105584;1320;22968;-81
2021/12/22 03:43:37;;;;;;;42.20;19.90;;;;;;;-2.92;81.33;99611.43;105566;1319;22738;-78
2021/12/22 03:46:05;;;;;;;45.60;21.80;;;;;;;-2.93;81.53;99612.45;105855;1316;22697;-82
2021/12/22 03:48:32;;;;;;;43.20;20.80;;;;;;;-2.93;81.42;99612.11;105517;1320;22823;-80
2021/12/22 03:50:59;;;;;;;44.40;21.20;;;;;;;-2.92;81.33;99606.84;105532;1320;22695;-82
2021/12/22 03:53:26;;;;;;;43.80;21.20;;;;;;;-2.92;81.17;99612.29;105485;1313;22719;-82
2021/12/22 03:55:53;;;;;;;48.20;22.10;;;;;;;-2.91;81.01;99614.17;105466;1320;22574;-83
2021/12/22 03:58:21;;;;;;;42.50;22.30;;;;;;;-2.88;80.81;99612.32;105435;1319;22646;-79
2021/12/22 04:00:51;;;;;;;40.80;21.70;;;;;;;-2.86;81.02;99619.48;105441;1319;22611;-77
2021/12/22 04:03:21;;;;;;;45.00;20.70;;;;;;;-2.85;81.28;99619.30;105530;1320;22802;-80
2021/12/22 04:05:49;;;;;;;43.00;21.30;;;;;;;-2.85;81.53;99622.02;105547;1317;25507;-80
2021/12/22 04:08:18;;;;;;;44.30;21.00;;;;;;;-2.84;81.51;99622.89;105514;1319;22642;-77
2021/12/22 04:10:47;;;;;;;40.40;20.40;;;;;;;-2.85;81.45;99618.63;105474;1320;23941;-77
2021/12/22 04:13:14;;;;;;;43.20;21.30;;;;;;;-2.87;81.10;99618.80;105510;1319;22585;-81
2021/12/22 04:15:42;;;;;;;48.70;24.10;;;;;;;-2.87;80.84;99618.63;105522;1320;22623;-79
2021/12/22 04:18:09;;;;;;;44.80;22.30;;;;;;;-2.84;81.06;99614.03;105590;1318;25439;-78
2021/12/22 04:20:36;;;;;;;46.20;21.10;;;;;;;-2.83;81.01;99615.06;105475;1320;22605;-78
2021/12/22 04:23:04;;;;;;;36.70;19.90;;;;;;;-2.83;81.27;99613.88;105478;1320;23999;-79
2021/12/22 04:25:32;;;;;;;44.30;21.10;;;;;;;-2.84;81.46;99617.10;105695;1316;22592;-77
2021/12/22 04:28:03;;;;;;;40.60;21.00;;;;;;;-2.86;81.53;99621.02;105481;1313;22600;-80
2021/12/22 04:30:36;;;;;;;46.20;21.30;;;;;;;-2.86;81.42;99620.16;105542;1320;24081;-78
2021/12/22 04:33:03;;;;;;;40.10;20.90;;;;;;;-2.85;81.28;99623.90;105992;1320;22528;-78
2021/12/22 04:35:31;;;;;;;42.60;21.80;;;;;;;-2.84;81.29;99623.40;105725;1316;22611;-78
2021/12/22 04:37:59;;;;;;;46.40;22.00;;;;;;;-2.81;80.92;99626.49;105506;1318;23144;-79
2021/12/22 04:40:26;;;;;;;47.10;23.40;;;;;;;-2.81;80.99;99629.40;105514;1319;22597;-80
2021/12/22 04:42:53;;;;;;;41.40;20.80;;;;;;;-2.78;81.45;99631.96;105485;1320;22574;-81
2021/12/22 04:45:20;;;;;;;43.20;22.80;;;;;;;-2.80;81.50;99635.89;105453;1316;22581;-76
2021/12/22 04:47:50;;;;;;;50.30;22.80;;;;;;;-2.81;81.40;99634.67;105474;1320;22696;-76
2021/12/22 04:50:20;;;;;;;51.80;22.40;;;;;;;-2.82;81.29;99633.31;105572;1320;25390;-76
2021/12/22 04:53:00;;;;;;;53.70;23.90;;;;;;;-2.84;81.16;99635.52;105531;1316;23615;-76
2021/12/22 04:55:28;;;;;;;58.60;24.20;;;;;;;-2.84;80.87;99635.51;105147;1320;454548;-77
2021/12/22 04:57:56;;;;;;;54.30;23.90;;;;;;;-2.80;80.91;99637.58;105461;1320;22702;-75
2021/12/22 05:00:26;;;;;;;56.80;24.10;;;;;;;-2.77;81.00;99637.92;105482;1320;22574;-81
2021/12/22 05:02:55;;;;;;;51.40;22.60;;;;;;;-2.76;81.39;99643.39;105541;1320;24339;-79
2021/12/22 05:05:23;;;;;;;59.90;25.20;;;;;;;-2.78;81.62;99646.11;105711;1320;22582;-78
2021/12/22 05:07:50;;;;;;;53.50;24.40;;;;;;;-2.78;81.65;99647.48;105529;1320;22682;-77
2021/12/22 05:10:18;;;;;;;54.10;24.80;;;;;;;-2.79;81.35;99650.55;105688;1317;22593;-78
2021/12/22 05:12:46;;;;;;;56.80;24.40;;;;;;;-2.81;81.26;99645.77;105421;1320;22656;-78
2021/12/22 05:15:17;;;;;;;44.10;19.80;;;;;;;-2.81;81.03;99642.70;105489;1319;22618;-78
2021/12/22 05:20:14;;;;;;;38.60;19.00;;;;;;;-2.78;81.22;99648.17;105464;1319;22574;-77
2021/12/22 05:22:41;;;;;;;34.10;18.00;;;;;;;-2.79;81.75;99641.34;105476;1316;22589;-77
2021/12/22 05:25:10;;;;;;;35.50;17.90;;;;;;;-2.81;81.66;99646.61;105479;1319;22578;-75
2021/12/22 05:27:37;;;;;;;32.30;17.10;;;;;;;-2.84;81.47;99647.95;105528;1320;22700;-77
2021/12/22 05:30:08;;;;;;;38.50;17.70;;;;;;;-2.85;81.26;99648.63;105336;1320;23059;-77
2021/12/22 05:32:36;;;;;;;37.60;18.20;;;;;;;-2.89;81.21;99648.29;105536;1320;23107;-77
2021/12/22 05:35:06;;;;;;;32.80;17.40;;;;;;;-2.91;80.74;99651.84;105713;1320;22566;-80
2021/12/22 05:37:34;;;;;;;38.10;16.30;;;;;;;-2.91;80.72;99650.65;105756;1317;23938;-77
2021/12/22 05:40:02;;;;;;;36.70;17.80;;;;;;;-2.90;80.98;99654.58;105812;1320;22659;-77
2021/12/22 05:42:29;;;;;;;32.50;16.40;;;;;;;-2.90;81.10;99657.48;105784;1320;22649;-76
2021/12/22 05:44:56;;;;;;;36.40;18.10;;;;;;;-2.93;81.24;99657.29;105768;1316;22589;-76
2021/12/22 05:47:23;;;;;;;29.80;17.00;;;;;;;-2.95;80.97;99660.17;105781;1320;22648;-80
2021/12/22 05:49:50;;;;;;;37.00;18.20;;;;;;;-2.98;80.65;99657.27;105756;1319;22877;-76
2021/12/22 05:52:17;;;;;;;40.50;19.10;;;;;;;-3.03;80.58;99659.80;105785;1320;22584;-82
2021/12/22 05:54:45;;;;;;;34.70;18.40;;;;;;;-3.06;80.37;99667.29;105773;1320;23289;-76
2021/12/22 05:57:13;;;;;;;31.50;16.90;;;;;;;-3.08;80.25;99671.70;105804;1317;22571;-77
2021/12/22 05:59:40;;;;;;;32.00;17.00;;;;;;;-3.09;80.32;99678.85;105790;1320;22566;-80
2021/12/22 06:02:07;;;;;;;33.00;15.60;;;;;;;-3.12;80.73;99681.73;105798;1320;22557;-79
2021/12/22 06:04:34;;;;;;;34.10;16.00;;;;;;;-3.19;80.82;99684.06;105747;1320;22562;-76
2021/12/22 06:07:02;;;;;;;31.20;16.50;;;;;;;-3.25;80.70;99683.52;105774;1320;24203;-81
2021/12/22 06:09:28;;;;;;;30.20;15.50;;;;;;;-3.35;80.25;99684.29;105751;1319;22596;-79
2021/12/22 06:11:56;;;;;;;34.50;16.40;;;;;;;-3.43;80.24;99691.23;105747;1319;22569;-82
2021/12/22 06:14:22;;;;;;;33.30;15.80;;;;;;;-3.50;80.07;99696.10;105782;1320;22635;-76
2021/12/22 06:16:49;;;;;;;32.70;16.30;;;;;;;-3.59;79.80;99699.09;105729;1319;22652;-77
2021/12/22 06:19:16;;;;;;;35.30;16.50;;;;;;;-3.62;79.85;99702.81;105715;1319;22590;-77
2021/12/22 06:21:46;;;;;;;33.20;15.80;;;;;;;-3.66;79.78;99702.61;105745;1319;25259;-76
2021/12/22 06:24:13;;;;;;;30.80;15.20;;;;;;;-3.70;80.24;99709.05;105719;1319;22714;-77
2021/12/22 06:26:39;;;;;;;31.50;16.00;;;;;;;-3.76;80.49;99715.13;105738;1319;24332;-76
2021/12/22 06:29:06;;;;;;;36.90;15.70;;;;;;;-3.82;80.12;99719.66;105749;1319;25437;-77
2021/12/22 06:31:33;;;;;;;31.40;14.70;;;;;;;-3.88;79.99;99724.37;105729;1319;22681;-79
2021/12/22 06:34:00;;;;;;;38.30;17.30;;;;;;;-3.93;79.69;99728.91;105779;1319;24655;-81
2021/12/22 06:36:27;;;;;;;35.50;17.00;;;;;;;-3.98;79.62;99734.80;105768;1319;22705;-79
2021/12/22 06:38:55;;;;;;;37.90;17.70;;;;;;;-4.02;79.65;99735.10;105764;1319;22611;-80
2021/12/22 06:41:22;;;;;;;40.80;18.30;;;;;;;-4.02;79.43;99743.43;105800;1319;22706;-79
2021/12/22 06:43:49;;;;;;;38.10;17.50;;;;;;;-4.03;79.69;99740.37;105770;1319;22590;-77
2021/12/22 06:46:16;;;;;;;36.80;16.20;;;;;;;-4.02;79.85;99744.80;105724;1319;25304;-81
2021/12/22 06:48:42;;;;;;;36.10;17.60;;;;;;;-4.02;80.27;99750.24;105715;1319;22707;-79
2021/12/22 06:51:09;;;;;;;39.60;17.10;;;;;;;-4.03;80.29;99756.54;105472;1319;22662;-78
2021/12/22 06:53:36;;;;;;;37.60;15.90;;;;;;;-4.07;80.15;99759.55;105488;1319;22584;-80
2021/12/22 06:56:04;;;;;;;32.00;16.00;;;;;;;-4.10;80.01;99762.58;105488;1319;22582;-76
2021/12/22 06:58:31;;;;;;;32.90;16.60;;;;;;;-4.10;79.90;99760.52;105489;1320;22591;-77
2021/12/22 07:00:59;;;;;;;34.50;16.30;;;;;;;-4.10;79.84;99765.46;105480;1320;23159;-79
2021/12/22 07:03:26;;;;;;;39.10;16.50;;;;;;;-4.08;79.66;99771.12;105463;1319;22700;-81
2021/12/22 07:05:53;;;;;;;41.40;17.90;;;;;;;-4.05;79.80;99773.02;105489;1317;22676;-81
2021/12/22 07:08:20;;;;;;;41.40;18.60;;;;;;;-4.03;80.07;99780.03;105457;1320;22715;-76
2021/12/22 07:10:48;;;;;;;63.70;25.60;;;;;;;-4.02;80.13;99783.08;105453;1320;22593;-76
2021/12/22 07:13:15;;;;;;;61.90;24.90;;;;;;;-4.01;80.11;99782.06;105484;1319;23346;-78
2021/12/22 07:15:45;;;;;;;54.30;22.00;;;;;;;-4.01;80.13;99783.60;105529;1319;22584;-78
2021/12/22 07:18:12;;;;;;;54.40;21.00;;;;;;;-4.02;79.96;99786.14;105512;1319;22735;-77
2021/12/22 07:20:39;;;;;;;52.50;20.60;;;;;;;-4.04;80.04;99783.42;105453;1320;25550;-79
2021/12/22 07:23:07;;;;;;;51.10;21.40;;;;;;;-4.06;79.65;99780.50;105474;1319;22642;-77
2021/12/22 07:25:34;;;;;;;56.90;22.30;;;;;;;-4.08;79.59;99780.98;105453;1320;22716;-76
2021/12/22 07:28:02;;;;;;;61.50;23.70;;;;;;;-4.07;79.27;99781.00;106112;1320;22705;-79
2021/12/22 07:30:29;;;;;;;58.50;22.90;;;;;;;-4.04;79.54;99781.89;105587;1320;22684;-76
2021/12/22 07:32:56;;;;;;;61.60;21.50;;;;;;;-4.03;79.65;99787.17;105501;1320;25290;-76
2021/12/22 07:35:32;;;;;;;46.60;18.90;;;;;;;-4.05;79.95;99796.00;105499;1320;27670;-76
2021/12/22 07:38:21;;;;;;;38.40;17.30;;;;;;;-4.05;79.94;99797.18;105477;1319;22590;-76
2021/12/22 07:40:48;;;;;;;35.60;15.70;;;;;;;-4.08;79.57;99797.98;105500;1319;22581;-76
2021/12/22 07:43:15;;;;;;;35.00;15.10;;;;;;;-4.11;79.53;99800.15;105524;1319;24432;-79
2021/12/22 07:45:42;;;;;;;35.90;15.40;;;;;;;-4.14;79.40;99801.16;105543;1320;22660;-78
2021/12/22 07:48:09;;;;;;;35.20;15.50;;;;;;;-4.18;79.22;99810.29;105455;1319;22758;-79
2021/12/22 07:50:36;;;;;;;30.00;13.60;;;;;;;-4.22;79.33;99812.13;105428;1319;24263;-77
2021/12/22 07:53:04;;;;;;;38.20;16.10;;;;;;;-4.25;78.91;99814.12;105474;1319;24368;-80
2021/12/22 07:55:31;;;;;;;39.40;17.80;;;;;;;-4.28;78.87;99814.06;105481;1314;22578;-75
2021/12/22 07:57:57;;;;;;;36.40;17.20;;;;;;;-4.28;78.82;99812.20;105423;1320;23128;-81
2021/12/22 08:00:24;;;;;;;37.30;15.40;;;;;;;-4.26;78.78;99811.38;105469;1317;26013;-75
2021/12/22 08:02:51;;;;;;;31.50;14.70;;;;;;;-4.27;79.15;99813.40;105448;1320;22716;-75
2021/12/22 08:05:18;;;;;;;35.60;15.90;;;;;;;-4.30;79.47;99810.66;105534;1319;23089;-80
2021/12/22 08:07:45;;;;;;;32.80;15.30;;;;;;;-4.31;79.17;99815.58;105494;1319;22638;-75
2021/12/22 08:10:12;;;;;;;32.80;15.20;;;;;;;-4.33;79.07;99815.38;105508;1319;22561;-76
2021/12/22 08:12:39;;;;;;;32.70;15.10;;;;;;;-4.35;78.93;99809.38;105477;1319;22714;-79
2021/12/22 08:15:07;;;;;;;29.30;14.40;;;;;;;-4.36;78.81;99812.77;105476;1319;25438;-77
2021/12/22 08:17:34;;;;;;;31.00;14.20;;;;;;;-4.36;78.72;99816.17;105483;1319;22682;-76
2021/12/22 08:20:04;;;;;;;28.80;13.80;;;;;;;-4.36;78.47;99813.96;105516;1319;22726;-78
2021/12/22 08:22:31;;;;;;;33.90;15.80;;;;;;;-4.37;78.57;99816.15;105470;1319;22614;-79
2021/12/22 08:24:58;;;;;;;31.10;14.80;;;;;;;-4.37;78.39;99814.80;105483;1320;25109;-76
2021/12/22 08:27:25;;;;;;;35.00;15.90;;;;;;;-4.36;78.23;99817.70;105311;1322;22569;-78
2021/12/22 08:29:53;;;;;;;27.80;15.50;;;;;;;-4.35;78.16;99818.74;105596;1319;22585;-76
2021/12/22 08:32:19;;;;;;;30.00;15.80;;;;;;;-4.29;78.22;99820.34;105421;1320;22643;-89
2021/12/22 08:34:52;;;;;;;30.60;15.70;;;;;;;-4.24;78.37;99817.20;105553;1319;22730;-75
2021/12/22 08:40:08;;;;;;;27.60;14.10;;;;;;;-4.10;79.16;99819.56;105489;1316;22646;-76
2021/12/22 08:42:36;;;;;;;26.70;14.70;;;;;;;-4.05;79.01;99823.89;105488;1319;22607;-77
2021/12/22 08:45:04;;;;;;;30.00;15.70;;;;;;;-4.00;78.75;99824.97;105518;1316;24867;-77
2021/12/22 08:47:31;;;;;;;26.00;12.40;;;;;;;-3.96;78.63;99825.04;105470;1319;24387;-79
2021/12/22 08:49:58;;;;;;;24.40;11.10;;;;;;;-3.94;78.40;99826.58;105714;1320;22668;-77
2021/12/22 08:52:25;;;;;;;25.00;12.70;;;;;;;-3.92;78.02;99831.88;105743;1320;23215;-77
2021/12/22 08:54:52;;;;;;;23.60;11.60;;;;;;;-3.92;77.73;99835.61;105719;1320;22579;-77
2021/12/22 08:57:19;;;;;;;27.30;13.30;;;;;;;-3.94;77.52;99837.64;105744;1319;25463;-77
2021/12/22 08:59:46;;;;;;;30.10;12.60;;;;;;;-3.93;77.68;99840.88;105737;1317;22571;-76
2021/12/22 09:02:13;;;;;;;28.50;14.00;;;;;;;-3.91;78.02;99840.73;105718;1320;22618;-76
2021/12/22 09:04:40;;;;;;;27.20;13.10;;;;;;;-3.90;78.39;99841.78;105700;1320;22630;-77
2021/12/22 09:07:07;;;;;;;38.00;15.50;;;;;;;-3.91;78.47;99842.61;105715;1320;22620;-79
2021/12/22 09:09:34;;;;;;;31.40;14.70;;;;;;;-3.90;78.08;99837.00;105720;1319;22600;-78
2021/12/22 09:12:02;;;;;;;36.10;15.50;;;;;;;-3.89;77.89;99837.02;105760;1317;24238;-79
2021/12/22 09:14:29;;;;;;;30.60;14.00;;;;;;;-3.86;77.57;99832.97;105803;1319;24342;-80
2021/12/22 09:16:56;;;;;;;28.80;14.10;;;;;;;-3.83;77.64;99837.93;105787;1320;22650;-79
2021/12/22 09:19:23;;;;;;;32.70;15.20;;;;;;;-3.82;77.16;99838.64;105764;1320;22589;-80
2021/12/22 09:21:51;;;;;;;35.10;16.20;;;;;;;-3.82;77.14;99838.63;105785;1320;22562;-81
2021/12/22 09:24:19;;;;;;;39.50;18.40;;;;;;;-3.82;77.28;99841.20;105772;1319;22697;-81
2021/12/22 09:26:46;;;;;;;36.00;17.80;;;;;;;-3.79;77.60;99841.58;105794;1320;22565;-78
2021/12/22 09:29:13;;;;;;;34.70;16.20;;;;;;;-3.75;78.12;99843.13;105752;1320;24372;-77
2021/12/22 09:31:41;;;;;;;34.20;16.20;;;;;;;-3.76;78.05;99839.73;105756;1313;22651;-79
2021/12/22 09:34:08;;;;;;;37.00;15.40;;;;;;;-3.74;77.82;99839.90;105656;1320;22577;-77
2021/12/22 09:36:36;;;;;;;29.50;11.60;;;;;;;-3.72;77.63;99845.55;105784;1320;23907;-86
2021/12/22 09:39:03;;;;;;;31.60;12.40;;;;;;;-3.69;76.95;99846.96;105765;1320;22575;-77
2021/12/22 09:41:32;;;;;;;25.60;11.60;;;;;;;-3.71;77.10;99845.41;105777;1320;24225;-78
2021/12/22 09:44:00;;;;;;;22.00;11.10;;;;;;;-3.68;76.96;99846.46;105785;1320;22649;-80
2021/12/22 09:46:27;;;;;;;22.40;10.70;;;;;;;-3.65;77.04;99844.96;105606;1320;22637;-80
2021/12/22 09:49:08;;;;;;;24.50;10.60;;;;;;;-3.59;76.69;99842.30;105534;1317;22585;-76
2021/12/22 09:54:21;;;;;;;21.60;9.20;;;;;;;-3.49;76.64;99834.05;105636;1318;22672;-78
2021/12/22 09:56:48;;;;;;;25.30;10.20;;;;;;;-3.45;76.46;99826.10;105666;1319;22582;-78
2021/12/22 09:59:16;;;;;;;19.30;9.30;;;;;;;-3.38;76.60;99822.92;105564;1319;22592;-81
2021/12/22 10:01:43;;;;;;;20.50;9.10;;;;;;;-3.30;76.41;99821.27;105610;1319;22694;-78
2021/12/22 10:04:10;;;;;;;21.10;9.80;;;;;;;-3.25;76.72;99821.17;105662;1316;23259;-78
2021/12/22 10:06:37;;;;;;;16.10;7.80;;;;;;;-3.18;77.00;99819.18;105629;1318;22581;-79
2021/12/22 10:09:06;;;;;;;18.60;9.40;;;;;;;-3.15;76.82;99818.20;105639;1319;24142;-81
2021/12/22 10:11:41;;;;;;;20.00;9.10;;;;;;;-3.11;76.46;99817.71;105892;1316;22579;-80
2021/12/22 10:14:25;;;;;;;19.80;8.10;;;;;;;-3.07;76.11;99810.60;105890;1319;22616;-81
2021/12/22 10:16:55;;;;;;;17.30;8.80;;;;;;;-3.04;75.63;99811.80;105898;1319;22672;-80
2021/12/22 10:19:26;;;;;;;19.50;8.60;;;;;;;-3.04;75.01;99811.13;105906;1319;22658;-80
2021/12/22 10:22:03;;;;;;;12.00;6.10;;;;;;;-3.04;74.54;99814.02;105854;1319;22658;-80
2021/12/22 10:24:42;;;;;;;15.20;6.20;;;;;;;-3.04;74.39;99814.02;105697;1318;22579;-84
2021/12/22 10:27:20;;;;;;;15.80;6.50;;;;;;;-3.01;74.05;99817.11;105633;1319;22606;-81
2021/12/22 10:29:47;;;;;;;17.20;7.00;;;;;;;-2.97;74.07;99821.25;105642;1318;25934;-78
2021/12/22 10:32:17;;;;;;;15.00;6.80;;;;;;;-2.95;73.64;99822.80;105667;1318;22620;-79
2021/12/22 10:35:03;;;;;;;11.20;4.40;;;;;;;-2.91;73.74;99820.44;105667;1319;22571;-77
2021/12/22 10:37:42;;;;;;;12.40;4.70;;;;;;;-2.88;73.20;99823.36;105709;1319;22665;-82
2021/12/22 10:40:30;;;;;;;13.10;5.70;;;;;;;-2.85;73.09;99825.41;105540;1319;24292;-83
2021/12/22 10:42:59;;;;;;;15.90;5.50;;;;;;;-2.78;73.25;99828.04;105475;1319;22764;-81
2021/12/22 10:45:28;;;;;;;10.10;4.50;;;;;;;-2.70;73.27;99822.98;105438;1319;22689;-76
2021/12/22 10:50:45;;;;;;;10.60;4.50;;;;;;;-2.54;72.95;99818.30;105455;1319;25297;-83
2021/12/22 10:53:14;;;;;;;9.40;4.60;;;;;;;-2.50;72.40;99821.73;105567;1318;23113;-82
2021/12/22 10:55:48;;;;;;;8.30;3.80;;;;;;;-2.49;72.20;99817.30;105743;1319;22611;-76
2021/12/22 10:58:17;;;;;;;10.30;4.40;;;;;;;-2.46;72.29;99816.80;105594;1319;22572;-77
2021/12/22 11:01:09;;;;;;;11.40;4.70;;;;;;;-2.44;71.84;99813.25;105644;1318;23396;-78
2021/12/22 11:03:45;;;;;;;8.50;3.90;;;;;;;-2.43;72.00;99813.26;105651;1319;22594;-76
2021/12/22 11:06:14;;;;;;;16.50;6.80;;;;;;;-2.40;71.80;99808.48;105614;1317;22733;-77
2021/12/22 11:08:52;;;;;;;13.40;5.70;;;;;;;-2.35;71.61;99814.34;105976;1319;22644;-79
2021/12/22 11:11:19;;;;;;;11.70;5.40;;;;;;;-2.27;71.62;99812.83;105683;1316;22938;-78
2021/12/22 11:14:01;;;;;;;10.10;4.70;;;;;;;-2.19;72.29;99809.63;105692;1319;22589;-78
2021/12/22 11:16:28;;;;;;;15.60;5.90;;;;;;;-2.11;72.52;99806.58;105702;1317;22671;-77
2021/12/22 11:19:07;;;;;;;13.60;6.50;;;;;;;-2.07;71.80;99809.85;105633;1314;22754;-78
2021/12/22 11:21:35;;;;;;;16.10;5.90;;;;;;;-2.07;71.74;99807.80;105724;1320;22586;-78
2021/12/22 11:24:03;;;;;;;12.10;4.60;;;;;;;-2.01;71.35;99809.54;105745;1319;22903;-77
2021/12/22 11:26:30;;;;;;;10.70;4.80;;;;;;;-1.97;70.86;99803.59;105752;1319;22818;-80
2021/12/22 11:28:58;;;;;;;11.40;4.60;;;;;;;-1.98;70.65;99798.80;105791;1319;24209;-79
2021/12/22 11:31:26;;;;;;;11.80;5.20;;;;;;;-1.98;70.25;99799.14;105762;1320;22670;-79
2021/12/22 11:33:54;;;;;;;13.40;6.00;;;;;;;-2.02;70.04;99797.91;105777;1320;22668;-78
2021/12/22 11:36:22;;;;;;;17.80;7.70;;;;;;;-2.05;70.14;99794.48;105746;1320;22733;-75
2021/12/22 11:38:49;;;;;;;12.70;6.10;;;;;;;-2.05;70.10;99788.52;105745;1319;22600;-76
2021/12/22 11:41:19;;;;;;;16.10;5.90;;;;;;;-2.05;70.38;99784.41;105750;1317;22590;-77
2021/12/22 11:43:48;;;;;;;15.00;6.40;;;;;;;-2.03;70.10;99783.39;105739;1320;25541;-76
2021/12/22 11:46:16;;;;;;;16.30;6.70;;;;;;;-2.06;69.95;99784.59;105739;1320;22597;-76
2021/12/22 11:48:48;;;;;;;15.20;6.70;;;;;;;-2.10;69.80;99784.91;105696;1316;22593;-75